NDL432 CYQB-CYWK
Flight info
| Callsign | NDL432 |
|---|---|
| Flight time | 1h 49m |
| Altitude | 25000 |
| Route | GADAL KESLU YBC ARAME |
| Aircraft | PC12/L-V/N |
Departure
| Time | 2026-05-04 19:15 |
|---|---|
| Airport | Quebec Jean Lesage International Airport (CYQB) |
Arrival
| Time | 2026-05-04 21:04 |
|---|---|
| Airport | Wabush Airport (CYWK) |
| Time | Latitude | Longitude | Altitude | Speed | Heading |
|---|---|---|---|---|---|
| 2026-05-04 19:05 | 46.79314 | -71.37496 | 240 ft | 0 kts | 234° |
| 2026-05-04 19:06 | 46.79314 | -71.37495 | 240 ft | 0 kts | 234° |
| 2026-05-04 19:11 | 46.79313 | -71.37498 | 240 ft | 1 kts | 234° |
| 2026-05-04 19:11 | 46.79285 | -71.37524 | 240 ft | 9 kts | 176° |
| 2026-05-04 19:11 | 46.79217 | -71.37523 | 240 ft | 12 kts | 224° |
| 2026-05-04 19:11 | 46.79158 | -71.37610 | 240 ft | 13 kts | 225° |
| 2026-05-04 19:12 | 46.79084 | -71.37720 | 240 ft | 17 kts | 222° |
| 2026-05-04 19:12 | 46.78926 | -71.37945 | 240 ft | 13 kts | 229° |
| 2026-05-04 19:12 | 46.78913 | -71.38073 | 240 ft | 13 kts | 236° |
| 2026-05-04 19:13 | 46.78816 | -71.38104 | 240 ft | 15 kts | 187° |
| 2026-05-04 19:13 | 46.78784 | -71.38111 | 240 ft | 0 kts | 189° |
| 2026-05-04 19:13 | 46.78762 | -71.38116 | 240 ft | 8 kts | 187° |
| 2026-05-04 19:14 | 46.78708 | -71.38162 | 238 ft | 8 kts | 273° |
| 2026-05-04 19:14 | 46.78727 | -71.38362 | 239 ft | 40 kts | 277° |
| 2026-05-04 19:14 | 46.78787 | -71.38994 | 238 ft | 83 kts | 278° |
| 2026-05-04 19:14 | 46.78879 | -71.39941 | 306 ft | 101 kts | 278° |
| 2026-05-04 19:15 | 46.78959 | -71.41011 | 494 ft | 111 kts | 268° |
| 2026-05-04 19:15 | 46.78834 | -71.42146 | 815 ft | 114 kts | 257° |
| 2026-05-04 19:15 | 46.78591 | -71.43263 | 1143 ft | 118 kts | 253° |
| 2026-05-04 19:15 | 46.78245 | -71.44311 | 1554 ft | 119 kts | 224° |
| 2026-05-04 19:16 | 46.77435 | -71.44655 | 1881 ft | 132 kts | 171° |
| 2026-05-04 19:16 | 46.76668 | -71.43914 | 2304 ft | 139 kts | 124° |
| 2026-05-04 19:16 | 46.76576 | -71.42559 | 2681 ft | 142 kts | 62° |
| 2026-05-04 19:16 | 46.77157 | -71.41419 | 3104 ft | 140 kts | 42° |
| 2026-05-04 19:17 | 46.77925 | -71.40572 | 3488 ft | 142 kts | 27° |
| 2026-05-04 19:17 | 46.78763 | -71.39766 | 3870 ft | 147 kts | 31° |
| 2026-05-04 19:17 | 46.79630 | -71.38853 | 4172 ft | 159 kts | 32° |
| 2026-05-04 19:17 | 46.80532 | -71.37941 | 4598 ft | 159 kts | 31° |
| 2026-05-04 19:18 | 46.81451 | -71.36978 | 4848 ft | 167 kts | 30° |
| 2026-05-04 19:18 | 46.82405 | -71.35969 | 5169 ft | 169 kts | 30° |
| 2026-05-04 19:18 | 46.83384 | -71.34975 | 5489 ft | 171 kts | 29° |
| 2026-05-04 19:18 | 46.84359 | -71.33978 | 5863 ft | 171 kts | 30° |
| 2026-05-04 19:19 | 46.85338 | -71.32964 | 6196 ft | 174 kts | 30° |
| 2026-05-04 19:19 | 46.86326 | -71.31945 | 6553 ft | 174 kts | 30° |
| 2026-05-04 19:19 | 46.87320 | -71.30923 | 6888 ft | 176 kts | 29° |
| 2026-05-04 19:19 | 46.88323 | -71.29891 | 7233 ft | 177 kts | 30° |
| 2026-05-04 19:20 | 46.89317 | -71.28868 | 7571 ft | 177 kts | 30° |
| 2026-05-04 19:20 | 46.90326 | -71.27829 | 7916 ft | 178 kts | 29° |
| 2026-05-04 19:20 | 46.91344 | -71.26782 | 8248 ft | 179 kts | 29° |
| 2026-05-04 19:20 | 46.92368 | -71.25729 | 8553 ft | 181 kts | 29° |
| 2026-05-04 19:21 | 46.93396 | -71.24666 | 8875 ft | 181 kts | 29° |
| 2026-05-04 19:21 | 46.94428 | -71.23605 | 9161 ft | 182 kts | 29° |
| 2026-05-04 19:21 | 46.95467 | -71.22534 | 9481 ft | 183 kts | 29° |
| 2026-05-04 19:21 | 46.96508 | -71.21459 | 9854 ft | 183 kts | 28° |
| 2026-05-04 19:22 | 46.97559 | -71.20376 | 10223 ft | 185 kts | 28° |
| 2026-05-04 19:22 | 46.98617 | -71.19282 | 10603 ft | 186 kts | 27° |
| 2026-05-04 19:22 | 46.99680 | -71.18183 | 10986 ft | 188 kts | 27° |
| 2026-05-04 19:22 | 47.00738 | -71.17089 | 11376 ft | 189 kts | 27° |
| 2026-05-04 19:23 | 47.01816 | -71.15974 | 11777 ft | 190 kts | 26° |
| 2026-05-04 19:23 | 47.02900 | -71.14852 | 12157 ft | 192 kts | 26° |
| 2026-05-04 19:23 | 47.03995 | -71.13718 | 12562 ft | 193 kts | 26° |
| 2026-05-04 19:23 | 47.05087 | -71.12586 | 12944 ft | 193 kts | 26° |
| 2026-05-04 19:24 | 47.06189 | -71.11445 | 13302 ft | 194 kts | 26° |
| 2026-05-04 19:24 | 47.07291 | -71.10300 | 13663 ft | 194 kts | 26° |
| 2026-05-04 19:24 | 47.08394 | -71.09159 | 13973 ft | 195 kts | 26° |
| 2026-05-04 19:24 | 47.09505 | -71.08001 | 14287 ft | 196 kts | 27° |
| 2026-05-04 19:25 | 47.10525 | -71.06600 | 14520 ft | 204 kts | 36° |
| 2026-05-04 19:25 | 47.11526 | -71.05131 | 14821 ft | 203 kts | 36° |
| 2026-05-04 19:25 | 47.12529 | -71.03665 | 15158 ft | 203 kts | 36° |
| 2026-05-04 19:25 | 47.13520 | -71.02217 | 15486 ft | 204 kts | 36° |
| 2026-05-04 19:26 | 47.14528 | -71.00744 | 15805 ft | 205 kts | 36° |
| 2026-05-04 19:26 | 47.15540 | -70.99260 | 16145 ft | 205 kts | 35° |
| 2026-05-04 19:26 | 47.16555 | -70.97776 | 16464 ft | 207 kts | 36° |
| 2026-05-04 19:26 | 47.17574 | -70.96283 | 16759 ft | 207 kts | 35° |
| 2026-05-04 19:27 | 47.18595 | -70.94785 | 17043 ft | 208 kts | 36° |
| 2026-05-04 19:27 | 47.19620 | -70.93283 | 17353 ft | 208 kts | 36° |
| 2026-05-04 19:27 | 47.20648 | -70.91777 | 17627 ft | 209 kts | 35° |
| 2026-05-04 19:27 | 47.21678 | -70.90262 | 17915 ft | 209 kts | 36° |
| 2026-05-04 19:28 | 47.22709 | -70.88745 | 18209 ft | 210 kts | 36° |
| 2026-05-04 19:28 | 47.23745 | -70.87224 | 18493 ft | 211 kts | 35° |
| 2026-05-04 19:28 | 47.24787 | -70.85692 | 18801 ft | 212 kts | 35° |
| 2026-05-04 19:28 | 47.25820 | -70.84172 | 19133 ft | 213 kts | 35° |
| 2026-05-04 19:29 | 47.26873 | -70.82621 | 19457 ft | 214 kts | 36° |
| 2026-05-04 19:29 | 47.27930 | -70.81062 | 19779 ft | 216 kts | 36° |
| 2026-05-04 19:29 | 47.28992 | -70.79497 | 20086 ft | 217 kts | 36° |
| 2026-05-04 19:29 | 47.30063 | -70.77917 | 20374 ft | 219 kts | 36° |
| 2026-05-04 19:30 | 47.31141 | -70.76328 | 20673 ft | 220 kts | 36° |
| 2026-05-04 19:30 | 47.32225 | -70.74728 | 20976 ft | 221 kts | 36° |
| 2026-05-04 19:30 | 47.33311 | -70.73121 | 21263 ft | 222 kts | 36° |
| 2026-05-04 19:30 | 47.34403 | -70.71506 | 21532 ft | 223 kts | 36° |
| 2026-05-04 19:31 | 47.35502 | -70.69880 | 21790 ft | 225 kts | 36° |
| 2026-05-04 19:31 | 47.36611 | -70.68238 | 22062 ft | 226 kts | 36° |
| 2026-05-04 19:31 | 47.37723 | -70.66590 | 22330 ft | 226 kts | 36° |
| 2026-05-04 19:31 | 47.38837 | -70.64938 | 22586 ft | 228 kts | 36° |
| 2026-05-04 19:32 | 47.39963 | -70.63268 | 22845 ft | 230 kts | 36° |
| 2026-05-04 19:32 | 47.41095 | -70.61587 | 23110 ft | 231 kts | 36° |
| 2026-05-04 19:32 | 47.42215 | -70.59924 | 23375 ft | 232 kts | 36° |
| 2026-05-04 19:32 | 47.43356 | -70.58228 | 23617 ft | 233 kts | 36° |
| 2026-05-04 19:33 | 47.44504 | -70.56520 | 23846 ft | 235 kts | 37° |
| 2026-05-04 19:33 | 47.45659 | -70.54800 | 24088 ft | 236 kts | 37° |
| 2026-05-04 19:33 | 47.46819 | -70.53071 | 24311 ft | 237 kts | 37° |
| 2026-05-04 19:33 | 47.47984 | -70.51336 | 24558 ft | 238 kts | 37° |
| 2026-05-04 19:34 | 47.49160 | -70.49584 | 24695 ft | 245 kts | 37° |
| 2026-05-04 19:34 | 47.50426 | -70.47838 | 24701 ft | 251 kts | 32° |
| 2026-05-04 19:34 | 47.51759 | -70.46090 | 24706 ft | 260 kts | 35° |
| 2026-05-04 19:34 | 47.53107 | -70.44261 | 24701 ft | 265 kts | 35° |
| 2026-05-04 19:35 | 47.54487 | -70.42415 | 24701 ft | 269 kts | 34° |
| 2026-05-04 19:35 | 47.55893 | -70.40558 | 24701 ft | 272 kts | 34° |
| 2026-05-04 19:35 | 47.57312 | -70.38680 | 24701 ft | 275 kts | 34° |
| 2026-05-04 19:35 | 47.58722 | -70.36804 | 24701 ft | 276 kts | 35° |
| 2026-05-04 19:36 | 47.60155 | -70.34896 | 24702 ft | 278 kts | 35° |
| 2026-05-04 19:36 | 47.61598 | -70.32975 | 24702 ft | 278 kts | 35° |
| 2026-05-04 19:36 | 47.63042 | -70.31052 | 24699 ft | 279 kts | 35° |
| 2026-05-04 19:36 | 47.64491 | -70.29122 | 24691 ft | 280 kts | 35° |
| 2026-05-04 19:37 | 47.65943 | -70.27186 | 24691 ft | 281 kts | 35° |
| 2026-05-04 19:37 | 47.67394 | -70.25247 | 24690 ft | 281 kts | 35° |
| 2026-05-04 19:37 | 47.68846 | -70.23307 | 24690 ft | 281 kts | 35° |
| 2026-05-04 19:37 | 47.70300 | -70.21364 | 24690 ft | 281 kts | 35° |
| 2026-05-04 19:38 | 47.71756 | -70.19418 | 24691 ft | 282 kts | 35° |
| 2026-05-04 19:38 | 47.73213 | -70.17466 | 24692 ft | 282 kts | 35° |
| 2026-05-04 19:38 | 47.74674 | -70.15507 | 24692 ft | 283 kts | 36° |
| 2026-05-04 19:38 | 47.76111 | -70.13579 | 24690 ft | 282 kts | 36° |
| 2026-05-04 19:39 | 47.77568 | -70.11624 | 24690 ft | 282 kts | 36° |
| 2026-05-04 19:39 | 47.79027 | -70.09665 | 24691 ft | 282 kts | 36° |
| 2026-05-04 19:39 | 47.80483 | -70.07708 | 24679 ft | 283 kts | 36° |
| 2026-05-04 19:39 | 47.81944 | -70.05743 | 24680 ft | 283 kts | 36° |
| 2026-05-04 19:40 | 47.83400 | -70.03780 | 24679 ft | 283 kts | 36° |
| 2026-05-04 19:40 | 47.84857 | -70.01818 | 24680 ft | 282 kts | 36° |
| 2026-05-04 19:40 | 47.86315 | -69.99851 | 24680 ft | 283 kts | 36° |
| 2026-05-04 19:40 | 47.87775 | -69.97881 | 24681 ft | 283 kts | 36° |
| 2026-05-04 19:41 | 47.89237 | -69.95908 | 24681 ft | 283 kts | 36° |
| 2026-05-04 19:41 | 47.90695 | -69.93936 | 24680 ft | 283 kts | 36° |
| 2026-05-04 19:41 | 47.92153 | -69.91964 | 24680 ft | 283 kts | 36° |
| 2026-05-04 19:41 | 47.93614 | -69.89986 | 24680 ft | 283 kts | 36° |
| 2026-05-04 19:42 | 47.95056 | -69.88032 | 24679 ft | 283 kts | 36° |
| 2026-05-04 19:42 | 47.96510 | -69.86059 | 24681 ft | 283 kts | 36° |
| 2026-05-04 19:42 | 47.97965 | -69.84084 | 24679 ft | 282 kts | 36° |
| 2026-05-04 19:42 | 47.99418 | -69.82111 | 24681 ft | 283 kts | 36° |
| 2026-05-04 19:43 | 48.00872 | -69.80136 | 24681 ft | 283 kts | 36° |
| 2026-05-04 19:43 | 48.02330 | -69.78152 | 24680 ft | 283 kts | 36° |
| 2026-05-04 19:43 | 48.03783 | -69.76173 | 24680 ft | 282 kts | 36° |
| 2026-05-04 19:43 | 48.05235 | -69.74193 | 24680 ft | 282 kts | 36° |
| 2026-05-04 19:44 | 48.06691 | -69.72208 | 24680 ft | 282 kts | 36° |
| 2026-05-04 19:44 | 48.08141 | -69.70230 | 24680 ft | 282 kts | 37° |
| 2026-05-04 19:44 | 48.09592 | -69.68249 | 24671 ft | 282 kts | 36° |
| 2026-05-04 19:44 | 48.11024 | -69.66290 | 24671 ft | 282 kts | 37° |
| 2026-05-04 19:45 | 48.12474 | -69.64307 | 24671 ft | 283 kts | 37° |
| 2026-05-04 19:45 | 48.13925 | -69.62320 | 24671 ft | 282 kts | 37° |
| 2026-05-04 19:45 | 48.15376 | -69.60332 | 24671 ft | 283 kts | 37° |
| 2026-05-04 19:45 | 48.16827 | -69.58342 | 24671 ft | 283 kts | 37° |
| 2026-05-04 19:46 | 48.18276 | -69.56354 | 24671 ft | 283 kts | 37° |
| 2026-05-04 19:46 | 48.19728 | -69.54360 | 24671 ft | 283 kts | 37° |
| 2026-05-04 19:46 | 48.21177 | -69.52367 | 24671 ft | 282 kts | 37° |
| 2026-05-04 19:46 | 48.22626 | -69.50374 | 24671 ft | 282 kts | 37° |
| 2026-05-04 19:47 | 48.24073 | -69.48383 | 24671 ft | 282 kts | 37° |
| 2026-05-04 19:47 | 48.25522 | -69.46386 | 24671 ft | 282 kts | 37° |
| 2026-05-04 19:47 | 48.26970 | -69.44389 | 24671 ft | 282 kts | 38° |
| 2026-05-04 19:47 | 48.28398 | -69.42419 | 24671 ft | 282 kts | 38° |
| 2026-05-04 19:48 | 48.29844 | -69.40422 | 24671 ft | 282 kts | 38° |
| 2026-05-04 19:48 | 48.31287 | -69.38426 | 24671 ft | 282 kts | 38° |
| 2026-05-04 19:48 | 48.32733 | -69.36426 | 24671 ft | 282 kts | 38° |
| 2026-05-04 19:48 | 48.34181 | -69.34422 | 24661 ft | 283 kts | 38° |
| 2026-05-04 19:49 | 48.35629 | -69.32415 | 24661 ft | 283 kts | 38° |
| 2026-05-04 19:49 | 48.37076 | -69.30408 | 24661 ft | 283 kts | 38° |
| 2026-05-04 19:49 | 48.38521 | -69.28402 | 24661 ft | 283 kts | 38° |
| 2026-05-04 19:49 | 48.39969 | -69.26392 | 24661 ft | 283 kts | 38° |
| 2026-05-04 19:50 | 48.41399 | -69.24404 | 24661 ft | 283 kts | 39° |
| 2026-05-04 19:50 | 48.42844 | -69.22393 | 24661 ft | 283 kts | 39° |
| 2026-05-04 19:50 | 48.44290 | -69.20380 | 24661 ft | 283 kts | 39° |
| 2026-05-04 19:50 | 48.45734 | -69.18368 | 24662 ft | 283 kts | 39° |
| 2026-05-04 19:51 | 48.47181 | -69.16350 | 24662 ft | 283 kts | 39° |
| 2026-05-04 19:51 | 48.48627 | -69.14331 | 24662 ft | 284 kts | 39° |
| 2026-05-04 19:51 | 48.50074 | -69.12309 | 24662 ft | 284 kts | 39° |
| 2026-05-04 19:51 | 48.51522 | -69.10285 | 24652 ft | 284 kts | 39° |
| 2026-05-04 19:52 | 48.52973 | -69.08257 | 24652 ft | 284 kts | 39° |
| 2026-05-04 19:52 | 48.54421 | -69.06227 | 24652 ft | 284 kts | 39° |
| 2026-05-04 19:52 | 48.55870 | -69.04195 | 24652 ft | 284 kts | 39° |
| 2026-05-04 19:52 | 48.57318 | -69.02165 | 24651 ft | 284 kts | 39° |
| 2026-05-04 19:53 | 48.58766 | -69.00132 | 24651 ft | 284 kts | 39° |
| 2026-05-04 19:53 | 48.60215 | -68.98097 | 24651 ft | 284 kts | 39° |
| 2026-05-04 19:53 | 48.61661 | -68.96062 | 24643 ft | 285 kts | 40° |
| 2026-05-04 19:53 | 48.63111 | -68.94022 | 24641 ft | 285 kts | 40° |
| 2026-05-04 19:54 | 48.64560 | -68.91983 | 24638 ft | 285 kts | 40° |
| 2026-05-04 19:54 | 48.66007 | -68.89942 | 24644 ft | 285 kts | 40° |
| 2026-05-04 19:54 | 48.67454 | -68.87900 | 24641 ft | 284 kts | 40° |
| 2026-05-04 19:54 | 48.68884 | -68.85881 | 24643 ft | 285 kts | 40° |
| 2026-05-04 19:55 | 48.70332 | -68.83834 | 24644 ft | 285 kts | 40° |
| 2026-05-04 19:55 | 48.71778 | -68.81789 | 24642 ft | 284 kts | 40° |
| 2026-05-04 19:55 | 48.73223 | -68.79744 | 24644 ft | 284 kts | 40° |
| 2026-05-04 19:55 | 48.74669 | -68.77695 | 24644 ft | 285 kts | 40° |
| 2026-05-04 19:56 | 48.76115 | -68.75646 | 24644 ft | 284 kts | 40° |
| 2026-05-04 19:56 | 48.77558 | -68.73600 | 24640 ft | 284 kts | 40° |
| 2026-05-04 19:56 | 48.79002 | -68.71548 | 24643 ft | 284 kts | 40° |
| 2026-05-04 19:56 | 48.80445 | -68.69498 | 24642 ft | 284 kts | 40° |
| 2026-05-04 19:57 | 48.81887 | -68.67446 | 24634 ft | 284 kts | 40° |
| 2026-05-04 19:57 | 48.83330 | -68.65391 | 24634 ft | 284 kts | 40° |
| 2026-05-04 19:57 | 48.84771 | -68.63337 | 24635 ft | 284 kts | 40° |
| 2026-05-04 19:57 | 48.86210 | -68.61287 | 24631 ft | 284 kts | 41° |
| 2026-05-04 19:58 | 48.87649 | -68.59233 | 24634 ft | 284 kts | 41° |
| 2026-05-04 19:58 | 48.89087 | -68.57179 | 24634 ft | 284 kts | 41° |
| 2026-05-04 19:58 | 48.90038 | -68.55819 | 24635 ft | 283 kts | 41° |
| 2026-05-04 19:58 | 48.91469 | -68.53772 | 24631 ft | 283 kts | 41° |
| 2026-05-04 19:59 | 48.93374 | -68.51045 | 24635 ft | 283 kts | 41° |
| 2026-05-04 19:59 | 48.94806 | -68.48992 | 24625 ft | 283 kts | 41° |
| 2026-05-04 19:59 | 48.96237 | -68.46941 | 24625 ft | 283 kts | 41° |
| 2026-05-04 19:59 | 48.97666 | -68.44889 | 24625 ft | 282 kts | 41° |
| 2026-05-04 20:00 | 48.99092 | -68.42840 | 24625 ft | 282 kts | 41° |
| 2026-05-04 20:00 | 49.00055 | -68.41456 | 24625 ft | 281 kts | 41° |
| 2026-05-04 20:00 | 49.01938 | -68.38747 | 24625 ft | 281 kts | 41° |
| 2026-05-04 20:00 | 49.02879 | -68.37391 | 24619 ft | 281 kts | 41° |
| 2026-05-04 20:01 | 49.04301 | -68.35343 | 24615 ft | 281 kts | 41° |
| 2026-05-04 20:01 | 49.05721 | -68.33294 | 24615 ft | 280 kts | 41° |
| 2026-05-04 20:01 | 49.07135 | -68.31253 | 24615 ft | 280 kts | 41° |
| 2026-05-04 20:01 | 49.08548 | -68.29212 | 24615 ft | 280 kts | 42° |
| 2026-05-04 20:02 | 49.09958 | -68.27173 | 24615 ft | 279 kts | 42° |
| 2026-05-04 20:02 | 49.11367 | -68.25134 | 24616 ft | 279 kts | 42° |
| 2026-05-04 20:02 | 49.12794 | -68.23135 | 24616 ft | 277 kts | 36° |
| 2026-05-04 20:02 | 49.14491 | -68.21834 | 24620 ft | 272 kts | 13° |
| 2026-05-04 20:03 | 49.16329 | -68.21190 | 24618 ft | 270 kts | 9° |
| 2026-05-04 20:03 | 49.18168 | -68.20607 | 24616 ft | 270 kts | 9° |
| 2026-05-04 20:03 | 49.20009 | -68.20009 | 24617 ft | 270 kts | 9° |
| 2026-05-04 20:03 | 49.21845 | -68.19399 | 24618 ft | 270 kts | 10° |
| 2026-05-04 20:04 | 49.23681 | -68.18789 | 24617 ft | 270 kts | 10° |
| 2026-05-04 20:04 | 49.25519 | -68.18179 | 24617 ft | 270 kts | 10° |
| 2026-05-04 20:04 | 49.27351 | -68.17577 | 24617 ft | 269 kts | 10° |
| 2026-05-04 20:04 | 49.29183 | -68.16972 | 24618 ft | 269 kts | 11° |
| 2026-05-04 20:05 | 49.31015 | -68.16365 | 24615 ft | 269 kts | 11° |
| 2026-05-04 20:05 | 49.32845 | -68.15759 | 24616 ft | 269 kts | 11° |
| 2026-05-04 20:05 | 49.34672 | -68.15153 | 24616 ft | 268 kts | 11° |
| 2026-05-04 20:05 | 49.36499 | -68.14547 | 24616 ft | 268 kts | 11° |
| 2026-05-04 20:06 | 49.38321 | -68.13942 | 24616 ft | 268 kts | 11° |
| 2026-05-04 20:06 | 49.40143 | -68.13336 | 24616 ft | 267 kts | 11° |
| 2026-05-04 20:06 | 49.41933 | -68.12741 | 24615 ft | 267 kts | 12° |
| 2026-05-04 20:06 | 49.43744 | -68.12139 | 24616 ft | 266 kts | 12° |
| 2026-05-04 20:07 | 49.45554 | -68.11537 | 24615 ft | 266 kts | 12° |
| 2026-05-04 20:07 | 49.47365 | -68.10933 | 24615 ft | 266 kts | 12° |
| 2026-05-04 20:07 | 49.49175 | -68.10329 | 24605 ft | 266 kts | 12° |
| 2026-05-04 20:07 | 49.50981 | -68.09726 | 24605 ft | 265 kts | 12° |
| 2026-05-04 20:08 | 49.52788 | -68.09122 | 24605 ft | 265 kts | 12° |
| 2026-05-04 20:08 | 49.54589 | -68.08520 | 24605 ft | 265 kts | 12° |
| 2026-05-04 20:08 | 49.56390 | -68.07919 | 24605 ft | 264 kts | 12° |
| 2026-05-04 20:08 | 49.58185 | -68.07318 | 24605 ft | 264 kts | 12° |
| 2026-05-04 20:09 | 49.59975 | -68.06718 | 24605 ft | 263 kts | 12° |
| 2026-05-04 20:09 | 49.61765 | -68.06117 | 24605 ft | 263 kts | 13° |
| 2026-05-04 20:09 | 49.63549 | -68.05518 | 24604 ft | 262 kts | 13° |
| 2026-05-04 20:09 | 49.65333 | -68.04919 | 24604 ft | 262 kts | 13° |
| 2026-05-04 20:10 | 49.67116 | -68.04321 | 24604 ft | 262 kts | 13° |
| 2026-05-04 20:10 | 49.68877 | -68.03729 | 24597 ft | 262 kts | 13° |
| 2026-05-04 20:10 | 49.70665 | -68.03127 | 24596 ft | 262 kts | 13° |
| 2026-05-04 20:10 | 49.72449 | -68.02525 | 24598 ft | 262 kts | 13° |
| 2026-05-04 20:11 | 49.74232 | -68.01925 | 24597 ft | 262 kts | 13° |
| 2026-05-04 20:11 | 49.76017 | -68.01323 | 24596 ft | 262 kts | 13° |
| 2026-05-04 20:11 | 49.77798 | -68.00722 | 24596 ft | 262 kts | 13° |
| 2026-05-04 20:11 | 49.79575 | -68.00121 | 24582 ft | 262 kts | 13° |
| 2026-05-04 20:12 | 49.81356 | -67.99520 | 24588 ft | 262 kts | 13° |
| 2026-05-04 20:12 | 49.83134 | -67.98918 | 24588 ft | 262 kts | 13° |
| 2026-05-04 20:12 | 49.84891 | -67.98323 | 24584 ft | 261 kts | 13° |
| 2026-05-04 20:12 | 49.86670 | -67.97720 | 24588 ft | 261 kts | 13° |
| 2026-05-04 20:13 | 49.88449 | -67.97117 | 24582 ft | 261 kts | 13° |
| 2026-05-04 20:13 | 49.90227 | -67.96514 | 24588 ft | 261 kts | 13° |
| 2026-05-04 20:13 | 49.92002 | -67.95910 | 24573 ft | 261 kts | 13° |
| 2026-05-04 20:13 | 49.93780 | -67.95307 | 24578 ft | 261 kts | 13° |
| 2026-05-04 20:14 | 49.95555 | -67.94703 | 24578 ft | 261 kts | 13° |
| 2026-05-04 20:14 | 49.97334 | -67.94098 | 24578 ft | 261 kts | 13° |
| 2026-05-04 20:14 | 49.99109 | -67.93494 | 24579 ft | 261 kts | 13° |
| 2026-05-04 20:14 | 50.00862 | -67.92896 | 24580 ft | 261 kts | 13° |
| 2026-05-04 20:15 | 50.02640 | -67.92289 | 24579 ft | 262 kts | 13° |
| 2026-05-04 20:15 | 50.04421 | -67.91681 | 24579 ft | 262 kts | 13° |
| 2026-05-04 20:15 | 50.06202 | -67.91072 | 24571 ft | 262 kts | 13° |
| 2026-05-04 20:15 | 50.07986 | -67.90461 | 24567 ft | 263 kts | 13° |
| 2026-05-04 20:16 | 50.09771 | -67.89850 | 24569 ft | 262 kts | 13° |
| 2026-05-04 20:16 | 50.11552 | -67.89241 | 24568 ft | 262 kts | 13° |
| 2026-05-04 20:16 | 50.13335 | -67.88630 | 24565 ft | 262 kts | 13° |
| 2026-05-04 20:16 | 50.15113 | -67.88020 | 24565 ft | 262 kts | 13° |
| 2026-05-04 20:17 | 50.16890 | -67.87411 | 24569 ft | 262 kts | 13° |
| 2026-05-04 20:17 | 50.18647 | -67.86808 | 24569 ft | 262 kts | 13° |
| 2026-05-04 20:17 | 50.20426 | -67.86196 | 24570 ft | 262 kts | 13° |
| 2026-05-04 20:17 | 50.22206 | -67.85583 | 24564 ft | 262 kts | 13° |
| 2026-05-04 20:18 | 50.23985 | -67.84971 | 24559 ft | 262 kts | 13° |
| 2026-05-04 20:18 | 50.25767 | -67.84357 | 24559 ft | 262 kts | 13° |
| 2026-05-04 20:18 | 50.27548 | -67.83743 | 24558 ft | 262 kts | 13° |
| 2026-05-04 20:18 | 50.29327 | -67.83128 | 24559 ft | 262 kts | 13° |
| 2026-05-04 20:19 | 50.31108 | -67.82514 | 24558 ft | 262 kts | 13° |
| 2026-05-04 20:19 | 50.32886 | -67.81900 | 24558 ft | 261 kts | 13° |
| 2026-05-04 20:19 | 50.34662 | -67.81285 | 24556 ft | 261 kts | 14° |
| 2026-05-04 20:19 | 50.36440 | -67.80670 | 24549 ft | 262 kts | 14° |
| 2026-05-04 20:20 | 50.38216 | -67.80055 | 24550 ft | 261 kts | 14° |
| 2026-05-04 20:20 | 50.39992 | -67.79440 | 24550 ft | 261 kts | 14° |
| 2026-05-04 20:20 | 50.41767 | -67.78824 | 24550 ft | 261 kts | 14° |
| 2026-05-04 20:20 | 50.43543 | -67.78207 | 24549 ft | 261 kts | 14° |
| 2026-05-04 20:21 | 50.45317 | -67.77591 | 24549 ft | 261 kts | 14° |
| 2026-05-04 20:21 | 50.47089 | -67.76976 | 24549 ft | 260 kts | 14° |
| 2026-05-04 20:21 | 50.50630 | -67.75742 | 24549 ft | 260 kts | 14° |
| 2026-05-04 20:22 | 50.52400 | -67.75125 | 24549 ft | 260 kts | 14° |
| 2026-05-04 20:22 | 50.54145 | -67.74518 | 24549 ft | 260 kts | 14° |
| 2026-05-04 20:22 | 50.55911 | -67.73901 | 24549 ft | 260 kts | 14° |
| 2026-05-04 20:22 | 50.57680 | -67.73282 | 24550 ft | 261 kts | 14° |
| 2026-05-04 20:23 | 50.59448 | -67.72665 | 24549 ft | 260 kts | 14° |
| 2026-05-04 20:23 | 50.61219 | -67.72045 | 24549 ft | 260 kts | 14° |
| 2026-05-04 20:23 | 50.62985 | -67.71427 | 24549 ft | 260 kts | 14° |
| 2026-05-04 20:23 | 50.64757 | -67.70805 | 24550 ft | 261 kts | 14° |
| 2026-05-04 20:24 | 50.66529 | -67.70183 | 24549 ft | 261 kts | 14° |
| 2026-05-04 20:24 | 50.68301 | -67.69563 | 24549 ft | 261 kts | 14° |
| 2026-05-04 20:24 | 50.70073 | -67.68940 | 24549 ft | 261 kts | 14° |
| 2026-05-04 20:24 | 50.71848 | -67.68316 | 24549 ft | 261 kts | 14° |
| 2026-05-04 20:25 | 50.73619 | -67.67693 | 24550 ft | 261 kts | 14° |
| 2026-05-04 20:25 | 50.75391 | -67.67074 | 24550 ft | 261 kts | 14° |
| 2026-05-04 20:25 | 50.77163 | -67.66447 | 24549 ft | 261 kts | 15° |
| 2026-05-04 20:25 | 50.78936 | -67.65817 | 24549 ft | 261 kts | 14° |
| 2026-05-04 20:26 | 50.80690 | -67.65198 | 24540 ft | 261 kts | 14° |
| 2026-05-04 20:26 | 50.82465 | -67.64573 | 24541 ft | 262 kts | 14° |
| 2026-05-04 20:26 | 50.84245 | -67.63944 | 24540 ft | 262 kts | 14° |
| 2026-05-04 20:26 | 50.86023 | -67.63315 | 24540 ft | 262 kts | 15° |
| 2026-05-04 20:27 | 50.87799 | -67.62686 | 24541 ft | 262 kts | 15° |
| 2026-05-04 20:27 | 50.89575 | -67.62057 | 24541 ft | 262 kts | 15° |
| 2026-05-04 20:27 | 50.91356 | -67.61426 | 24540 ft | 261 kts | 15° |
| 2026-05-04 20:27 | 50.93134 | -67.60796 | 24540 ft | 262 kts | 15° |
| 2026-05-04 20:28 | 50.94910 | -67.60165 | 24541 ft | 262 kts | 15° |
| 2026-05-04 20:28 | 50.96687 | -67.59533 | 24541 ft | 261 kts | 15° |
| 2026-05-04 20:28 | 50.98464 | -67.58901 | 24541 ft | 261 kts | 15° |
| 2026-05-04 20:28 | 51.00241 | -67.58269 | 24540 ft | 261 kts | 15° |
| 2026-05-04 20:29 | 51.01993 | -67.57646 | 24540 ft | 261 kts | 15° |
| 2026-05-04 20:29 | 51.03767 | -67.57013 | 24540 ft | 261 kts | 15° |
| 2026-05-04 20:29 | 51.05538 | -67.56380 | 24540 ft | 261 kts | 15° |
| 2026-05-04 20:29 | 51.07312 | -67.55748 | 24540 ft | 261 kts | 15° |
| 2026-05-04 20:30 | 51.09087 | -67.55113 | 24541 ft | 261 kts | 15° |
| 2026-05-04 20:30 | 51.10862 | -67.54479 | 24541 ft | 261 kts | 15° |
| 2026-05-04 20:30 | 51.12640 | -67.53843 | 24541 ft | 262 kts | 15° |
| 2026-05-04 20:30 | 51.14418 | -67.53206 | 24540 ft | 261 kts | 15° |
| 2026-05-04 20:31 | 51.16191 | -67.52571 | 24540 ft | 261 kts | 15° |
| 2026-05-04 20:31 | 51.17964 | -67.51935 | 24540 ft | 261 kts | 15° |
| 2026-05-04 20:31 | 51.19738 | -67.51299 | 24540 ft | 261 kts | 15° |
| 2026-05-04 20:31 | 51.21484 | -67.50535 | 24539 ft | 259 kts | 22° |
| 2026-05-04 20:32 | 51.23171 | -67.49529 | 24539 ft | 259 kts | 24° |
| 2026-05-04 20:32 | 51.24842 | -67.48565 | 24514 ft | 260 kts | 22° |
| 2026-05-04 20:32 | 51.26596 | -67.47638 | 24261 ft | 269 kts | 21° |
| 2026-05-04 20:32 | 51.28404 | -67.46694 | 24012 ft | 275 kts | 21° |
| 2026-05-04 20:33 | 51.30226 | -67.45719 | 23764 ft | 277 kts | 21° |
| 2026-05-04 20:33 | 51.32056 | -67.44730 | 23514 ft | 279 kts | 21° |
| 2026-05-04 20:33 | 51.33898 | -67.43740 | 23264 ft | 279 kts | 21° |
| 2026-05-04 20:33 | 51.35740 | -67.42753 | 23015 ft | 279 kts | 21° |
| 2026-05-04 20:34 | 51.37584 | -67.41764 | 22764 ft | 279 kts | 21° |
| 2026-05-04 20:34 | 51.39424 | -67.40772 | 22514 ft | 279 kts | 21° |
| 2026-05-04 20:34 | 51.41264 | -67.39780 | 22263 ft | 278 kts | 21° |
| 2026-05-04 20:34 | 51.43093 | -67.38794 | 22013 ft | 277 kts | 21° |
| 2026-05-04 20:35 | 51.44917 | -67.37812 | 21763 ft | 276 kts | 21° |
| 2026-05-04 20:35 | 51.46713 | -67.36842 | 21516 ft | 275 kts | 21° |
| 2026-05-04 20:35 | 51.48523 | -67.35862 | 21266 ft | 274 kts | 21° |
| 2026-05-04 20:35 | 51.50329 | -67.34885 | 21016 ft | 273 kts | 21° |
| 2026-05-04 20:36 | 51.52128 | -67.33912 | 20765 ft | 272 kts | 21° |
| 2026-05-04 20:36 | 51.53918 | -67.32943 | 20515 ft | 271 kts | 21° |
| 2026-05-04 20:36 | 51.55702 | -67.31976 | 20265 ft | 270 kts | 21° |
| 2026-05-04 20:36 | 51.57480 | -67.31011 | 20013 ft | 269 kts | 20° |
| 2026-05-04 20:37 | 51.59250 | -67.30049 | 19764 ft | 268 kts | 20° |
| 2026-05-04 20:37 | 51.61017 | -67.29088 | 19514 ft | 267 kts | 20° |
| 2026-05-04 20:37 | 51.62778 | -67.28131 | 19265 ft | 267 kts | 20° |
| 2026-05-04 20:37 | 51.64538 | -67.27173 | 19013 ft | 266 kts | 20° |
| 2026-05-04 20:38 | 51.66287 | -67.26220 | 18763 ft | 265 kts | 20° |
| 2026-05-04 20:38 | 51.68035 | -67.25266 | 18513 ft | 265 kts | 20° |
| 2026-05-04 20:38 | 51.69775 | -67.24317 | 18263 ft | 264 kts | 20° |
| 2026-05-04 20:38 | 51.71512 | -67.23369 | 18009 ft | 263 kts | 20° |
| 2026-05-04 20:39 | 51.73245 | -67.22421 | 17763 ft | 263 kts | 20° |
| 2026-05-04 20:39 | 51.74972 | -67.21477 | 17513 ft | 262 kts | 20° |
| 2026-05-04 20:39 | 51.76695 | -67.20533 | 17262 ft | 261 kts | 20° |
| 2026-05-04 20:39 | 51.78414 | -67.19592 | 17012 ft | 260 kts | 20° |
| 2026-05-04 20:40 | 51.80123 | -67.18654 | 16762 ft | 259 kts | 20° |
| 2026-05-04 20:40 | 51.81829 | -67.17717 | 16512 ft | 259 kts | 19° |
| 2026-05-04 20:40 | 51.83533 | -67.16782 | 16262 ft | 258 kts | 19° |
| 2026-05-04 20:40 | 51.85229 | -67.15850 | 16012 ft | 257 kts | 19° |
| 2026-05-04 20:41 | 51.86915 | -67.14922 | 15761 ft | 255 kts | 19° |
| 2026-05-04 20:41 | 51.88595 | -67.13996 | 15511 ft | 254 kts | 19° |
| 2026-05-04 20:41 | 51.90267 | -67.13075 | 15262 ft | 254 kts | 19° |
| 2026-05-04 20:41 | 51.91915 | -67.12167 | 15014 ft | 253 kts | 19° |
| 2026-05-04 20:42 | 51.93578 | -67.11248 | 14765 ft | 252 kts | 19° |
| 2026-05-04 20:42 | 51.95236 | -67.10333 | 14511 ft | 251 kts | 19° |
| 2026-05-04 20:42 | 51.96890 | -67.09419 | 14264 ft | 251 kts | 18° |
| 2026-05-04 20:42 | 51.98539 | -67.08506 | 14016 ft | 250 kts | 18° |
| 2026-05-04 20:43 | 52.00181 | -67.07595 | 13763 ft | 249 kts | 18° |
| 2026-05-04 20:43 | 52.01819 | -67.06689 | 13513 ft | 248 kts | 19° |
| 2026-05-04 20:43 | 52.03450 | -67.05786 | 13263 ft | 247 kts | 19° |
| 2026-05-04 20:43 | 52.05069 | -67.04886 | 13012 ft | 245 kts | 19° |
| 2026-05-04 20:44 | 52.06682 | -67.03990 | 12761 ft | 244 kts | 19° |
| 2026-05-04 20:44 | 52.08292 | -67.03098 | 12511 ft | 243 kts | 19° |
| 2026-05-04 20:44 | 52.09893 | -67.02206 | 12261 ft | 243 kts | 19° |
| 2026-05-04 20:44 | 52.11491 | -67.01315 | 12011 ft | 243 kts | 19° |
| 2026-05-04 20:45 | 52.13085 | -67.00425 | 11761 ft | 242 kts | 18° |
| 2026-05-04 20:45 | 52.14654 | -66.99553 | 11513 ft | 240 kts | 18° |
| 2026-05-04 20:45 | 52.16220 | -66.98678 | 11262 ft | 236 kts | 18° |
| 2026-05-04 20:45 | 52.17770 | -66.97812 | 11012 ft | 234 kts | 18° |
| 2026-05-04 20:46 | 52.19308 | -66.96953 | 10761 ft | 233 kts | 18° |
| 2026-05-04 20:46 | 52.20834 | -66.96100 | 10511 ft | 231 kts | 18° |
| 2026-05-04 20:46 | 52.22354 | -66.95253 | 10260 ft | 230 kts | 18° |
| 2026-05-04 20:46 | 52.23863 | -66.94408 | 10010 ft | 230 kts | 18° |
| 2026-05-04 20:47 | 52.25374 | -66.93566 | 9760 ft | 229 kts | 18° |
| 2026-05-04 20:47 | 52.26862 | -66.92723 | 9508 ft | 224 kts | 18° |
| 2026-05-04 20:47 | 52.28326 | -66.91892 | 9253 ft | 222 kts | 18° |
| 2026-05-04 20:47 | 52.29770 | -66.91087 | 9006 ft | 218 kts | 18° |
| 2026-05-04 20:48 | 52.31210 | -66.90270 | 8758 ft | 219 kts | 18° |
| 2026-05-04 20:48 | 52.32167 | -66.89732 | 8591 ft | 218 kts | 18° |
| 2026-05-04 20:48 | 52.33594 | -66.88939 | 8341 ft | 215 kts | 17° |
| 2026-05-04 20:48 | 52.35010 | -66.88151 | 8087 ft | 212 kts | 18° |
| 2026-05-04 20:49 | 52.36400 | -66.87363 | 7837 ft | 211 kts | 18° |
| 2026-05-04 20:49 | 52.37767 | -66.86578 | 7713 ft | 206 kts | 18° |
| 2026-05-04 20:49 | 52.39125 | -66.85813 | 7484 ft | 206 kts | 17° |
| 2026-05-04 20:49 | 52.40480 | -66.85060 | 7284 ft | 205 kts | 17° |
| 2026-05-04 20:50 | 52.41824 | -66.84300 | 7083 ft | 204 kts | 17° |
| 2026-05-04 20:50 | 52.43171 | -66.83540 | 6888 ft | 204 kts | 17° |
| 2026-05-04 20:50 | 52.44522 | -66.82767 | 6688 ft | 206 kts | 17° |
| 2026-05-04 20:50 | 52.45892 | -66.81997 | 6508 ft | 207 kts | 17° |
| 2026-05-04 20:51 | 52.47232 | -66.81246 | 6335 ft | 206 kts | 17° |
| 2026-05-04 20:51 | 52.48577 | -66.80479 | 6159 ft | 203 kts | 17° |
| 2026-05-04 20:51 | 52.49907 | -66.79720 | 5988 ft | 201 kts | 17° |
| 2026-05-04 20:51 | 52.51225 | -66.78976 | 5839 ft | 200 kts | 17° |
| 2026-05-04 20:52 | 52.52541 | -66.78230 | 5677 ft | 199 kts | 17° |
| 2026-05-04 20:52 | 52.53832 | -66.77497 | 5536 ft | 196 kts | 17° |
| 2026-05-04 20:52 | 52.55108 | -66.76768 | 5385 ft | 191 kts | 17° |
| 2026-05-04 20:52 | 52.56371 | -66.76056 | 5235 ft | 192 kts | 17° |
| 2026-05-04 20:53 | 52.57619 | -66.75342 | 5086 ft | 188 kts | 18° |
| 2026-05-04 20:53 | 52.58836 | -66.74645 | 5004 ft | 180 kts | 18° |
| 2026-05-04 20:53 | 52.59986 | -66.73996 | 5000 ft | 170 kts | 17° |
| 2026-05-04 20:53 | 52.61081 | -66.73371 | 4996 ft | 162 kts | 17° |
| 2026-05-04 20:54 | 52.62128 | -66.72768 | 4991 ft | 156 kts | 17° |
| 2026-05-04 20:54 | 52.63132 | -66.72195 | 4992 ft | 151 kts | 17° |
| 2026-05-04 20:54 | 52.64115 | -66.71639 | 4984 ft | 148 kts | 27° |
| 2026-05-04 20:54 | 52.65089 | -66.71088 | 4991 ft | 151 kts | 24° |
| 2026-05-04 20:55 | 52.66108 | -66.71097 | 5012 ft | 147 kts | 344° |
| 2026-05-04 20:55 | 52.67057 | -66.71662 | 5010 ft | 142 kts | 343° |
| 2026-05-04 20:55 | 52.67943 | -66.72182 | 5008 ft | 129 kts | 344° |
| 2026-05-04 20:55 | 52.68764 | -66.72661 | 5001 ft | 121 kts | 343° |
| 2026-05-04 20:56 | 52.69587 | -66.73143 | 4997 ft | 132 kts | 346° |
| 2026-05-04 20:56 | 52.70479 | -66.73660 | 5008 ft | 140 kts | 347° |
| 2026-05-04 20:56 | 52.71404 | -66.74200 | 5004 ft | 141 kts | 346° |
| 2026-05-04 20:56 | 52.72338 | -66.74752 | 5009 ft | 144 kts | 346° |
| 2026-05-04 20:57 | 52.73292 | -66.75307 | 5007 ft | 147 kts | 346° |
| 2026-05-04 20:57 | 52.74256 | -66.75870 | 5001 ft | 146 kts | 346° |
| 2026-05-04 20:57 | 52.75203 | -66.76426 | 5001 ft | 142 kts | 346° |
| 2026-05-04 20:57 | 52.76066 | -66.76933 | 4962 ft | 124 kts | 343° |
| 2026-05-04 20:58 | 52.76849 | -66.77392 | 4816 ft | 115 kts | 344° |
| 2026-05-04 20:58 | 52.77546 | -66.77803 | 4676 ft | 100 kts | 344° |
| 2026-05-04 20:58 | 52.78179 | -66.78176 | 4547 ft | 96 kts | 344° |
| 2026-05-04 20:58 | 52.78812 | -66.78546 | 4422 ft | 97 kts | 344° |
| 2026-05-04 20:59 | 52.79445 | -66.78917 | 4295 ft | 97 kts | 344° |
| 2026-05-04 20:59 | 52.80081 | -66.79290 | 4169 ft | 98 kts | 344° |
| 2026-05-04 20:59 | 52.80726 | -66.79670 | 4037 ft | 98 kts | 343° |
| 2026-05-04 20:59 | 52.81362 | -66.80039 | 3907 ft | 97 kts | 344° |
| 2026-05-04 21:00 | 52.81992 | -66.80408 | 3775 ft | 96 kts | 343° |
| 2026-05-04 21:00 | 52.82616 | -66.80781 | 3654 ft | 95 kts | 343° |
| 2026-05-04 21:00 | 52.83245 | -66.81147 | 3540 ft | 98 kts | 344° |
| 2026-05-04 21:00 | 52.83890 | -66.81533 | 3384 ft | 96 kts | 342° |
| 2026-05-04 21:01 | 52.84524 | -66.81917 | 3249 ft | 97 kts | 343° |
| 2026-05-04 21:01 | 52.85143 | -66.82297 | 3156 ft | 89 kts | 343° |
| 2026-05-04 21:01 | 52.85707 | -66.82638 | 3029 ft | 85 kts | 343° |
| 2026-05-04 21:01 | 52.86268 | -66.82965 | 2901 ft | 85 kts | 345° |
| 2026-05-04 21:02 | 52.86816 | -66.83287 | 2785 ft | 82 kts | 344° |
| 2026-05-04 21:02 | 52.87346 | -66.83600 | 2676 ft | 80 kts | 343° |
| 2026-05-04 21:02 | 52.87869 | -66.83905 | 2568 ft | 79 kts | 345° |
| 2026-05-04 21:02 | 52.88382 | -66.84202 | 2473 ft | 78 kts | 343° |
| 2026-05-04 21:03 | 52.88889 | -66.84499 | 2397 ft | 77 kts | 345° |
| 2026-05-04 21:03 | 52.89402 | -66.84794 | 2304 ft | 79 kts | 344° |
| 2026-05-04 21:03 | 52.89923 | -66.85083 | 2220 ft | 79 kts | 345° |
| 2026-05-04 21:03 | 52.90459 | -66.85404 | 2077 ft | 83 kts | 343° |
| 2026-05-04 21:04 | 52.90992 | -66.85712 | 1958 ft | 80 kts | 343° |
| 2026-05-04 21:04 | 52.91508 | -66.86020 | 1833 ft | 77 kts | 343° |
| 2026-05-04 21:04 | 52.91957 | -66.86275 | 1810 ft | 56 kts | 340° |
| 2026-05-04 21:04 | 52.92136 | -66.86384 | 1808 ft | 21 kts | 338° |
| 2026-05-04 21:05 | 52.92275 | -66.86465 | 1804 ft | 20 kts | 340° |
| 2026-05-04 21:05 | 52.92393 | -66.86537 | 1801 ft | 16 kts | 339° |
| 2026-05-04 21:05 | 52.92493 | -66.86597 | 1801 ft | 18 kts | 342° |
| 2026-05-04 21:05 | 52.92634 | -66.86680 | 1800 ft | 22 kts | 341° |
| 2026-05-04 21:06 | 52.92700 | -66.86812 | 1800 ft | 15 kts | 255° |
| 2026-05-04 21:06 | 52.92670 | -66.86953 | 1800 ft | 12 kts | 250° |
| 2026-05-04 21:06 | 52.92644 | -66.87068 | 1800 ft | 10 kts | 249° |
| 2026-05-04 21:06 | 52.92682 | -66.87169 | 1800 ft | 13 kts | 340° |
| 2026-05-04 21:07 | 52.92676 | -66.87232 | 1800 ft | 3 kts | 128° |
| 2026-05-04 21:07 | 52.92674 | -66.87229 | 1800 ft | 0 kts | 118° |